sensor_id;sensor_type;location;lat;lon;timestamp;pressure;altitude;pressure_sealevel;temperature;humidity
42887;BME280;29032;56.028;92.904;2024-01-15T00:02:24;99128.53;;;-10.68;33.31
42887;BME280;29032;56.028;92.904;2024-01-15T00:07:26;99158.88;;;-10.81;33.31
42887;BME280;29032;56.028;92.904;2024-01-15T00:12:29;99213.25;;;-11.18;35.89
42887;BME280;29032;56.028;92.904;2024-01-15T00:17:32;99232.50;;;-11.40;34.04
42887;BME280;29032;56.028;92.904;2024-01-15T00:22:34;99313.56;;;-11.97;36.55
42887;BME280;29032;56.028;92.904;2024-01-15T00:27:36;99308.88;;;-12.27;34.83
42887;BME280;29032;56.028;92.904;2024-01-15T00:32:40;99298.75;;;-12.50;33.50
42887;BME280;29032;56.028;92.904;2024-01-15T00:37:42;99352.78;;;-12.61;32.92
42887;BME280;29032;56.028;92.904;2024-01-15T00:42:44;99350.84;;;-12.64;32.84
42887;BME280;29032;56.028;92.904;2024-01-15T00:47:48;99364.41;;;-12.71;32.92
42887;BME280;29032;56.028;92.904;2024-01-15T00:52:50;99385.72;;;-12.91;32.36
42887;BME280;29032;56.028;92.904;2024-01-15T00:57:52;99393.03;;;-12.92;31.94
42887;BME280;29032;56.028;92.904;2024-01-15T01:02:56;99429.22;;;-12.89;32.77
42887;BME280;29032;56.028;92.904;2024-01-15T01:07:58;99456.94;;;-12.96;32.37
42887;BME280;29032;56.028;92.904;2024-01-15T01:13:00;99480.84;;;-13.05;31.99
42887;BME280;29032;56.028;92.904;2024-01-15T01:18:04;99509.44;;;-13.25;31.94
42887;BME280;29032;56.028;92.904;2024-01-15T01:23:06;99541.78;;;-13.39;31.56
42887;BME280;29032;56.028;92.904;2024-01-15T01:28:08;99525.72;;;-13.71;31.27
42887;BME280;29032;56.028;92.904;2024-01-15T01:33:12;99555.69;;;-13.73;32.15
42887;BME280;29032;56.028;92.904;2024-01-15T01:38:14;99572.63;;;-13.90;31.56
42887;BME280;29032;56.028;92.904;2024-01-15T01:43:16;99572.63;;;-13.90;31.28
42887;BME280;29032;56.028;92.904;2024-01-15T01:48:20;99592.59;;;-13.91;31.67
42887;BME280;29032;56.028;92.904;2024-01-15T01:53:22;99608.34;;;-13.79;31.68
42887;BME280;29032;56.028;92.904;2024-01-15T01:58:25;99634.88;;;-13.81;31.55
42887;BME280;29032;56.028;92.904;2024-01-15T02:03:30;99636.00;;;-13.61;32.00
42887;BME280;29032;56.028;92.904;2024-01-15T02:08:33;99673.66;;;-13.47;31.60
42887;BME280;29032;56.028;92.904;2024-01-15T02:13:36;99664.41;;;-13.28;32.12
42887;BME280;29032;56.028;92.904;2024-01-15T02:18:44;99666.28;;;-13.14;31.95
42887;BME280;29032;56.028;92.904;2024-01-15T02:23:47;99675.53;;;-13.22;31.35
42887;BME280;29032;56.028;92.904;2024-01-15T02:28:50;99689.38;;;-13.27;31.23
42887;BME280;29032;56.028;92.904;2024-01-15T02:33:52;99693.63;;;-13.40;30.96
42887;BME280;29032;56.028;92.904;2024-01-15T02:38:56;99702.50;;;-13.51;31.50
42887;BME280;29032;56.028;92.904;2024-01-15T02:43:58;99732.47;;;-13.49;31.21
42887;BME280;29032;56.028;92.904;2024-01-15T02:49:00;99744.75;;;-13.48;31.34
42887;BME280;29032;56.028;92.904;2024-01-15T02:54:04;99776.31;;;-13.37;31.71
42887;BME280;29032;56.028;92.904;2024-01-15T02:59:06;99763.63;;;-13.44;30.60
42887;BME280;29032;56.028;92.904;2024-01-15T03:04:08;99788.56;;;-13.68;29.81
42887;BME280;29032;56.028;92.904;2024-01-15T03:09:12;99788.97;;;-13.73;30.37
42887;BME280;29032;56.028;92.904;2024-01-15T03:14:14;99797.78;;;-13.73;29.87
42887;BME280;29032;56.028;92.904;2024-01-15T03:19:16;99816.63;;;-13.69;30.31
42887;BME280;29032;56.028;92.904;2024-01-15T03:24:19;99840.81;;;-13.80;29.45
42887;BME280;29032;56.028;92.904;2024-01-15T03:29:21;99866.53;;;-13.83;30.48
42887;BME280;29032;56.028;92.904;2024-01-15T03:34:23;99864.28;;;-13.70;30.52
42887;BME280;29032;56.028;92.904;2024-01-15T03:39:27;99891.19;;;-13.70;31.11
42887;BME280;29032;56.028;92.904;2024-01-15T03:44:29;99886.19;;;-13.75;30.65
42887;BME280;29032;56.028;92.904;2024-01-15T03:49:31;99894.25;;;-13.75;31.61
42887;BME280;29032;56.028;92.904;2024-01-15T03:54:35;99909.94;;;-13.84;31.31
42887;BME280;29032;56.028;92.904;2024-01-15T03:59:37;99905.31;;;-13.94;31.17
42887;BME280;29032;56.028;92.904;2024-01-15T04:04:41;99921.06;;;-13.93;31.70
42887;BME280;29032;56.028;92.904;2024-01-15T04:09:44;99925.31;;;-13.85;31.41
42887;BME280;29032;56.028;92.904;2024-01-15T04:14:46;99917.63;;;-13.86;30.75
42887;BME280;29032;56.028;92.904;2024-01-15T04:19:48;99928.72;;;-13.98;30.79
42887;BME280;29032;56.028;92.904;2024-01-15T04:24:52;99946.38;;;-14.01;30.76
42887;BME280;29032;56.028;92.904;2024-01-15T04:29:54;99966.69;;;-14.04;30.88
42887;BME280;29032;56.028;92.904;2024-01-15T04:34:56;99966.75;;;-13.96;30.86
42887;BME280;29032;56.028;92.904;2024-01-15T04:40:00;99970.53;;;-14.05;30.86
42887;BME280;29032;56.028;92.904;2024-01-15T04:45:03;99984.44;;;-13.95;30.81
42887;BME280;29032;56.028;92.904;2024-01-15T04:50:05;99972.53;;;-13.91;31.13
42887;BME280;29032;56.028;92.904;2024-01-15T04:55:09;99977.53;;;-13.93;30.53
42887;BME280;29032;56.028;92.904;2024-01-15T05:00:12;99991.34;;;-13.94;32.04
42887;BME280;29032;56.028;92.904;2024-01-15T05:05:14;100001.44;;;-13.77;30.67
42887;BME280;29032;56.028;92.904;2024-01-15T05:10:18;100006.91;;;-13.63;30.51
42887;BME280;29032;56.028;92.904;2024-01-15T05:15:20;100020.81;;;-13.50;29.57
42887;BME280;29032;56.028;92.904;2024-01-15T05:20:22;100030.44;;;-13.45;29.78
42887;BME280;29032;56.028;92.904;2024-01-15T05:25:26;100038.16;;;-13.33;30.26
42887;BME280;29032;56.028;92.904;2024-01-15T05:30:28;100029.00;;;-13.22;30.06
42887;BME280;29032;56.028;92.904;2024-01-15T05:35:30;100029.38;;;-13.23;29.76
42887;BME280;29032;56.028;92.904;2024-01-15T05:40:34;100027.84;;;-13.24;29.40
42887;BME280;29032;56.028;92.904;2024-01-15T05:45:37;100026.59;;;-13.41;29.36
42887;BME280;29032;56.028;92.904;2024-01-15T05:50:39;100037.41;;;-13.34;29.66
42887;BME280;29032;56.028;92.904;2024-01-15T05:55:43;100042.50;;;-13.18;29.35
42887;BME280;29032;56.028;92.904;2024-01-15T06:00:45;100062.94;;;-13.03;28.85
42887;BME280;29032;56.028;92.904;2024-01-15T06:05:47;100073.38;;;-12.90;28.14
42887;BME280;29032;56.028;92.904;2024-01-15T06:10:51;100073.34;;;-12.94;28.48
42887;BME280;29032;56.028;92.904;2024-01-15T06:15:53;100082.47;;;-13.20;31.71
42887;BME280;29032;56.028;92.904;2024-01-15T06:20:55;100099.47;;;-13.02;31.91
42887;BME280;29032;56.028;92.904;2024-01-15T06:25:58;100114.13;;;-12.96;28.52
42887;BME280;29032;56.028;92.904;2024-01-15T06:31:00;100096.34;;;-13.18;28.42
42887;BME280;29032;56.028;92.904;2024-01-15T06:36:03;100097.72;;;-13.45;28.33
42887;BME280;29032;56.028;92.904;2024-01-15T06:41:07;100108.75;;;-13.65;28.88
42887;BME280;29032;56.028;92.904;2024-01-15T06:46:09;100118.78;;;-13.55;28.90
42887;BME280;29032;56.028;92.904;2024-01-15T06:51:11;100113.06;;;-13.50;27.90
42887;BME280;29032;56.028;92.904;2024-01-15T06:56:14;100120.41;;;-13.43;28.31
42887;BME280;29032;56.028;92.904;2024-01-15T07:01:17;100125.38;;;-13.52;27.74
42887;BME280;29032;56.028;92.904;2024-01-15T07:06:19;100153.06;;;-13.52;28.13
42887;BME280;29032;56.028;92.904;2024-01-15T07:11:22;100151.50;;;-13.53;28.45
42887;BME280;29032;56.028;92.904;2024-01-15T07:16:24;100163.47;;;-13.47;28.58
42887;BME280;29032;56.028;92.904;2024-01-15T07:21:26;100178.53;;;-13.38;28.59
42887;BME280;29032;56.028;92.904;2024-01-15T07:26:30;100185.84;;;-13.35;28.09
42887;BME280;29032;56.028;92.904;2024-01-15T07:31:32;100196.28;;;-13.27;28.40
42887;BME280;29032;56.028;92.904;2024-01-15T07:36:34;100201.78;;;-13.09;28.10
42887;BME280;29032;56.028;92.904;2024-01-15T07:41:38;100207.91;;;-13.12;27.78
42887;BME280;29032;56.028;92.904;2024-01-15T07:46:44;100219.56;;;-12.97;28.62
42887;BME280;29032;56.028;92.904;2024-01-15T07:51:46;100224.28;;;-12.83;27.55
42887;BME280;29032;56.028;92.904;2024-01-15T07:56:56;100233.59;;;-12.67;28.15
42887;BME280;29032;56.028;92.904;2024-01-15T08:01:59;100232.00;;;-12.75;28.57
42887;BME280;29032;56.028;92.904;2024-01-15T08:07:01;100245.44;;;-12.82;28.59
42887;BME280;29032;56.028;92.904;2024-01-15T08:12:05;100240.75;;;-12.96;27.97
42887;BME280;29032;56.028;92.904;2024-01-15T08:17:08;100254.84;;;-13.13;28.16
42887;BME280;29032;56.028;92.904;2024-01-15T08:22:10;100261.72;;;-13.19;27.76
42887;BME280;29032;56.028;92.904;2024-01-15T08:27:13;100270.75;;;-12.97;28.50
42887;BME280;29032;56.028;92.904;2024-01-15T08:32:15;100282.66;;;-12.98;28.50
42887;BME280;29032;56.028;92.904;2024-01-15T08:37:17;100296.44;;;-13.10;28.51
42887;BME280;29032;56.028;92.904;2024-01-15T08:42:21;100320.19;;;-13.20;28.42
42887;BME280;29032;56.028;92.904;2024-01-15T08:47:23;100326.72;;;-13.21;28.79
42887;BME280;29032;56.028;92.904;2024-01-15T08:52:25;100336.66;;;-13.28;28.44
42887;BME280;29032;56.028;92.904;2024-01-15T08:57:29;100349.03;;;-13.20;28.37
42887;BME280;29032;56.028;92.904;2024-01-15T09:02:31;100364.47;;;-13.54;28.13
42887;BME280;29032;56.028;92.904;2024-01-15T09:07:33;100378.19;;;-13.66;28.32
42887;BME280;29032;56.028;92.904;2024-01-15T09:12:37;100391.25;;;-13.65;28.69
42887;BME280;29032;56.028;92.904;2024-01-15T09:17:39;100397.41;;;-13.68;28.55
42887;BME280;29032;56.028;92.904;2024-01-15T09:22:41;100409.72;;;-13.63;29.29
42887;BME280;29032;56.028;92.904;2024-01-15T09:27:44;100413.63;;;-13.61;28.54
42887;BME280;29032;56.028;92.904;2024-01-15T09:32:46;100410.50;;;-13.63;30.71
42887;BME280;29032;56.028;92.904;2024-01-15T09:37:49;100427.00;;;-13.68;31.09
42887;BME280;29032;56.028;92.904;2024-01-15T09:42:52;100442.47;;;-13.58;29.40
42887;BME280;29032;56.028;92.904;2024-01-15T09:47:54;100457.66;;;-13.72;31.40
42887;BME280;29032;56.028;92.904;2024-01-15T09:52:57;100467.44;;;-13.61;31.44
42887;BME280;29032;56.028;92.904;2024-01-15T09:58:02;100473.59;;;-13.60;30.50
42887;BME280;29032;56.028;92.904;2024-01-15T10:03:05;100483.44;;;-13.71;30.54
42887;BME280;29032;56.028;92.904;2024-01-15T10:08:08;100497.75;;;-13.64;30.10
42887;BME280;29032;56.028;92.904;2024-01-15T10:13:13;100513.19;;;-13.61;29.88
42887;BME280;29032;56.028;92.904;2024-01-15T10:18:16;100526.34;;;-13.82;29.16
42887;BME280;29032;56.028;92.904;2024-01-15T10:23:19;100526.66;;;-13.87;29.45
42887;BME280;29032;56.028;92.904;2024-01-15T10:28:23;100531.59;;;-13.89;29.17
42887;BME280;29032;56.028;92.904;2024-01-15T10:33:27;100533.56;;;-13.86;29.35
42887;BME280;29032;56.028;92.904;2024-01-15T10:38:29;100543.09;;;-13.92;29.74
42887;BME280;29032;56.028;92.904;2024-01-15T10:43:33;100557.59;;;-13.97;29.28
42887;BME280;29032;56.028;92.904;2024-01-15T10:48:35;100558.47;;;-14.16;29.51
42887;BME280;29032;56.028;92.904;2024-01-15T10:53:38;100574.97;;;-14.17;29.82
42887;BME280;29032;56.028;92.904;2024-01-15T10:58:43;100589.66;;;-14.11;29.93
42887;BME280;29032;56.028;92.904;2024-01-15T11:03:46;100584.28;;;-14.11;29.50
42887;BME280;29032;56.028;92.904;2024-01-15T11:08:49;100601.78;;;-14.21;29.87
42887;BME280;29032;56.028;92.904;2024-01-15T11:13:53;100607.03;;;-14.28;29.87
42887;BME280;29032;56.028;92.904;2024-01-15T11:19:05;100610.72;;;-14.17;29.59
42887;BME280;29032;56.028;92.904;2024-01-15T11:24:07;100618.00;;;-14.17;29.82
42887;BME280;29032;56.028;92.904;2024-01-15T11:29:29;100630.22;;;-13.97;30.17
42887;BME280;29032;56.028;92.904;2024-01-15T11:34:58;100640.69;;;-13.92;30.19
42887;BME280;29032;56.028;92.904;2024-01-15T11:40:02;100658.56;;;-14.03;29.35
42887;BME280;29032;56.028;92.904;2024-01-15T11:45:06;100667.63;;;-14.11;30.60
42887;BME280;29032;56.028;92.904;2024-01-15T11:50:08;100679.59;;;-14.09;30.00
42887;BME280;29032;56.028;92.904;2024-01-15T11:55:19;100698.84;;;-14.07;30.18
42887;BME280;29032;56.028;92.904;2024-01-15T12:00:23;100708.69;;;-14.14;29.73
42887;BME280;29032;56.028;92.904;2024-01-15T12:05:26;100721.34;;;-14.38;29.73
42887;BME280;29032;56.028;92.904;2024-01-15T12:10:28;100727.16;;;-14.32;30.24
42887;BME280;29032;56.028;92.904;2024-01-15T12:15:32;100735.44;;;-14.21;29.46
42887;BME280;29032;56.028;92.904;2024-01-15T12:20:34;100735.09;;;-14.39;30.48
42887;BME280;29032;56.028;92.904;2024-01-15T12:25:37;100742.50;;;-14.33;31.11
42887;BME280;29032;56.028;92.904;2024-01-15T12:30:40;100760.28;;;-14.09;30.83
42887;BME280;29032;56.028;92.904;2024-01-15T12:35:43;100766.47;;;-14.05;31.25
42887;BME280;29032;56.028;92.904;2024-01-15T12:40:45;100769.25;;;-14.01;29.76
42887;BME280;29032;56.028;92.904;2024-01-15T12:45:48;100780.50;;;-13.95;29.88
42887;BME280;29032;56.028;92.904;2024-01-15T12:50:52;100781.34;;;-13.91;29.52
42887;BME280;29032;56.028;92.904;2024-01-15T12:55:54;100783.03;;;-13.83;29.69
42887;BME280;29032;56.028;92.904;2024-01-15T13:00:58;100801.00;;;-13.68;29.37
42887;BME280;29032;56.028;92.904;2024-01-15T13:06:00;100804.81;;;-13.69;29.12
42887;BME280;29032;56.028;92.904;2024-01-15T13:11:02;100809.63;;;-13.78;29.57
42887;BME280;29032;56.028;92.904;2024-01-15T13:16:06;100812.47;;;-13.71;29.71
42887;BME280;29032;56.028;92.904;2024-01-15T13:21:08;100822.94;;;-13.66;29.49
42887;BME280;29032;56.028;92.904;2024-01-15T13:26:10;100830.78;;;-13.57;29.38
42887;BME280;29032;56.028;92.904;2024-01-15T13:31:14;100835.81;;;-13.56;29.09
42887;BME280;29032;56.028;92.904;2024-01-15T13:36:16;100841.06;;;-13.63;29.49
42887;BME280;29032;56.028;92.904;2024-01-15T13:41:19;100844.31;;;-13.54;29.55
42887;BME280;29032;56.028;92.904;2024-01-15T13:46:24;100855.22;;;-13.47;29.32
42887;BME280;29032;56.028;92.904;2024-01-15T13:51:27;100863.72;;;-13.44;29.36
42887;BME280;29032;56.028;92.904;2024-01-15T13:56:29;100865.13;;;-13.51;29.54
42887;BME280;29032;56.028;92.904;2024-01-15T14:01:32;100877.03;;;-13.52;29.51
42887;BME280;29032;56.028;92.904;2024-01-15T14:06:34;100883.81;;;-13.38;29.43
42887;BME280;29032;56.028;92.904;2024-01-15T14:11:36;100889.88;;;-13.22;29.59
42887;BME280;29032;56.028;92.904;2024-01-15T14:16:40;100889.06;;;-13.03;29.02
42887;BME280;29032;56.028;92.904;2024-01-15T14:21:42;100893.84;;;-12.93;32.35
42887;BME280;29032;56.028;92.904;2024-01-15T14:26:44;100902.66;;;-12.73;30.09
42887;BME280;29032;56.028;92.904;2024-01-15T14:31:48;100913.66;;;-12.59;29.43
42887;BME280;29032;56.028;92.904;2024-01-15T14:36:50;100920.88;;;-12.89;28.89
42887;BME280;29032;56.028;92.904;2024-01-15T14:41:52;100925.66;;;-13.22;29.86
42887;BME280;29032;56.028;92.904;2024-01-15T14:46:56;100929.50;;;-13.23;29.71
42887;BME280;29032;56.028;92.904;2024-01-15T14:51:58;100926.59;;;-13.33;29.42
42887;BME280;29032;56.028;92.904;2024-01-15T14:57:00;100924.63;;;-13.36;30.36
42887;BME280;29032;56.028;92.904;2024-01-15T15:02:04;100929.28;;;-13.33;29.87
42887;BME280;29032;56.028;92.904;2024-01-15T15:07:06;100937.88;;;-13.66;29.65
42887;BME280;29032;56.028;92.904;2024-01-15T15:12:09;100942.56;;;-13.98;30.17
42887;BME280;29032;56.028;92.904;2024-01-15T15:17:12;100947.72;;;-14.09;30.38
42887;BME280;29032;56.028;92.904;2024-01-15T15:22:15;100953.03;;;-14.13;30.31
42887;BME280;29032;56.028;92.904;2024-01-15T15:27:17;100937.59;;;-14.16;30.39
42887;BME280;29032;56.028;92.904;2024-01-15T15:32:20;100941.81;;;-13.99;29.82
42887;BME280;29032;56.028;92.904;2024-01-15T15:37:22;100953.44;;;-13.95;30.55
42887;BME280;29032;56.028;92.904;2024-01-15T15:42:25;100955.75;;;-13.93;30.26
42887;BME280;29032;56.028;92.904;2024-01-15T15:47:28;100946.19;;;-13.91;30.20
42887;BME280;29032;56.028;92.904;2024-01-15T15:52:30;100941.31;;;-13.85;30.09
42887;BME280;29032;56.028;92.904;2024-01-15T15:57:32;100951.56;;;-13.75;29.78
42887;BME280;29032;56.028;92.904;2024-01-15T16:02:36;100951.97;;;-13.73;30.21
42887;BME280;29032;56.028;92.904;2024-01-15T16:07:38;100956.94;;;-13.75;30.01
42887;BME280;29032;56.028;92.904;2024-01-15T16:12:40;100954.72;;;-13.69;31.07
42887;BME280;29032;56.028;92.904;2024-01-15T16:17:44;100955.47;;;-13.53;31.69
42887;BME280;29032;56.028;92.904;2024-01-15T16:22:48;100960.75;;;-13.37;31.32
42887;BME280;29032;56.028;92.904;2024-01-15T16:27:52;100974.72;;;-13.32;31.17
42887;BME280;29032;56.028;92.904;2024-01-15T16:33:01;100964.72;;;-13.31;30.79
42887;BME280;29032;56.028;92.904;2024-01-15T16:38:04;100964.72;;;-13.31;30.98
42887;BME280;29032;56.028;92.904;2024-01-15T16:43:06;100957.84;;;-13.29;30.83
42887;BME280;29032;56.028;92.904;2024-01-15T16:48:10;100960.63;;;-13.25;31.17
42887;BME280;29032;56.028;92.904;2024-01-15T16:53:12;100952.97;;;-13.23;31.10
42887;BME280;29032;56.028;92.904;2024-01-15T16:58:14;100947.44;;;-13.11;31.20
42887;BME280;29032;56.028;92.904;2024-01-15T17:03:18;100951.56;;;-12.94;31.18
42887;BME280;29032;56.028;92.904;2024-01-15T17:08:20;100956.34;;;-12.84;31.49
42887;BME280;29032;56.028;92.904;2024-01-15T17:13:22;100959.25;;;-12.96;30.63
42887;BME280;29032;56.028;92.904;2024-01-15T17:18:26;100957.44;;;-13.11;30.08
42887;BME280;29032;56.028;92.904;2024-01-15T17:23:29;100966.00;;;-13.25;31.20
42887;BME280;29032;56.028;92.904;2024-01-15T17:28:31;100972.38;;;-13.33;30.63
42887;BME280;29032;56.028;92.904;2024-01-15T17:33:34;100977.06;;;-13.30;30.42
42887;BME280;29032;56.028;92.904;2024-01-15T17:38:36;100980.31;;;-13.21;30.67
42887;BME280;29032;56.028;92.904;2024-01-15T17:43:39;100993.78;;;-13.21;30.84
42887;BME280;29032;56.028;92.904;2024-01-15T17:48:42;100985.13;;;-13.11;30.74
42887;BME280;29032;56.028;92.904;2024-01-15T17:53:45;100988.09;;;-12.97;30.83
42887;BME280;29032;56.028;92.904;2024-01-15T17:58:47;100997.59;;;-13.03;30.95
42887;BME280;29032;56.028;92.904;2024-01-15T18:03:51;100999.78;;;-12.89;31.16
42887;BME280;29032;56.028;92.904;2024-01-15T18:08:53;101005.66;;;-12.83;31.33
42887;BME280;29032;56.028;92.904;2024-01-15T18:13:55;101012.00;;;-12.72;30.88
42887;BME280;29032;56.028;92.904;2024-01-15T18:18:58;101003.28;;;-12.66;30.77
42887;BME280;29032;56.028;92.904;2024-01-15T18:24:00;100996.81;;;-12.61;30.75
42887;BME280;29032;56.028;92.904;2024-01-15T18:29:03;101012.47;;;-12.47;30.96
42887;BME280;29032;56.028;92.904;2024-01-15T18:34:06;101004.13;;;-12.39;30.60
42887;BME280;29032;56.028;92.904;2024-01-15T18:39:08;101018.09;;;-12.33;31.94
42887;BME280;29032;56.028;92.904;2024-01-15T18:44:10;101021.25;;;-12.27;30.99
42887;BME280;29032;56.028;92.904;2024-01-15T18:49:17;101025.53;;;-12.26;30.66
42887;BME280;29032;56.028;92.904;2024-01-15T18:54:19;101032.66;;;-12.38;29.91
42887;BME280;29032;56.028;92.904;2024-01-15T18:59:21;101019.22;;;-12.57;30.89
42887;BME280;29032;56.028;92.904;2024-01-15T19:04:24;101020.34;;;-12.58;30.57
42887;BME280;29032;56.028;92.904;2024-01-15T19:09:26;101025.44;;;-12.53;30.51
42887;BME280;29032;56.028;92.904;2024-01-15T19:14:29;101035.94;;;-12.48;31.03
42887;BME280;29032;56.028;92.904;2024-01-15T19:19:32;101031.88;;;-12.38;30.26
42887;BME280;29032;56.028;92.904;2024-01-15T19:24:36;101034.50;;;-12.42;30.29
42887;BME280;29032;56.028;92.904;2024-01-15T19:29:38;101019.03;;;-12.45;30.63
42887;BME280;29032;56.028;92.904;2024-01-15T19:34:42;101027.97;;;-12.41;31.13
42887;BME280;29032;56.028;92.904;2024-01-15T19:39:44;101030.25;;;-12.43;30.92
42887;BME280;29032;56.028;92.904;2024-01-15T19:44:46;101041.88;;;-12.39;30.39
42887;BME280;29032;56.028;92.904;2024-01-15T19:49:49;101039.78;;;-12.26;30.88
42887;BME280;29032;56.028;92.904;2024-01-15T19:54:51;101045.22;;;-12.22;30.21
42887;BME280;29032;56.028;92.904;2024-01-15T19:59:54;101049.69;;;-12.33;30.63
42887;BME280;29032;56.028;92.904;2024-01-15T20:04:57;101056.75;;;-12.25;30.37
42887;BME280;29032;56.028;92.904;2024-01-15T20:10:00;101066.22;;;-12.12;30.41
42887;BME280;29032;56.028;92.904;2024-01-15T20:15:02;101073.41;;;-11.97;30.99
42887;BME280;29032;56.028;92.904;2024-01-15T20:20:07;101076.78;;;-11.77;31.21
42887;BME280;29032;56.028;92.904;2024-01-15T20:25:09;101088.13;;;-11.64;30.72
42887;BME280;29032;56.028;92.904;2024-01-15T20:30:12;101096.81;;;-11.52;30.62
42887;BME280;29032;56.028;92.904;2024-01-15T20:35:16;101103.09;;;-11.44;31.56
42887;BME280;29032;56.028;92.904;2024-01-15T20:40:18;101098.72;;;-11.52;30.62
42887;BME280;29032;56.028;92.904;2024-01-15T20:45:20;101110.63;;;-11.57;31.23
42887;BME280;29032;56.028;92.904;2024-01-15T20:50:24;101115.78;;;-11.48;30.93
42887;BME280;29032;56.028;92.904;2024-01-15T20:55:26;101109.63;;;-11.45;30.49
42887;BME280;29032;56.028;92.904;2024-01-15T21:00:28;101113.06;;;-11.48;31.51
42887;BME280;29032;56.028;92.904;2024-01-15T21:05:32;101127.41;;;-11.44;31.17
42887;BME280;29032;56.028;92.904;2024-01-15T21:10:34;101131.03;;;-11.59;32.15
42887;BME280;29032;56.028;92.904;2024-01-15T21:15:36;101136.88;;;-11.80;31.60
42887;BME280;29032;56.028;92.904;2024-01-15T21:20:39;101128.41;;;-11.78;31.82
42887;BME280;29032;56.028;92.904;2024-01-15T21:25:42;101137.88;;;-11.65;31.38
42887;BME280;29032;56.028;92.904;2024-01-15T21:30:44;101136.13;;;-11.54;31.00
42887;BME280;29032;56.028;92.904;2024-01-15T21:35:47;101133.94;;;-11.45;30.96
42887;BME280;29032;56.028;92.904;2024-01-15T21:40:49;101139.72;;;-11.46;30.84
42887;BME280;29032;56.028;92.904;2024-01-15T21:45:51;101144.72;;;-11.48;30.54
42887;BME280;29032;56.028;92.904;2024-01-15T21:50:55;101147.00;;;-11.73;29.89
42887;BME280;29032;56.028;92.904;2024-01-15T21:55:57;101149.78;;;-11.93;30.65
42887;BME280;29032;56.028;92.904;2024-01-15T22:00:59;101152.47;;;-11.93;31.00
42887;BME280;29032;56.028;92.904;2024-01-15T22:06:03;101160.25;;;-11.91;30.21
42887;BME280;29032;56.028;92.904;2024-01-15T22:11:05;101156.97;;;-12.00;30.65
42887;BME280;29032;56.028;92.904;2024-01-15T22:16:07;101159.91;;;-12.09;30.46
42887;BME280;29032;56.028;92.904;2024-01-15T22:21:11;101163.00;;;-12.30;31.10
42887;BME280;29032;56.028;92.904;2024-01-15T22:26:13;101175.22;;;-12.36;31.34
42887;BME280;29032;56.028;92.904;2024-01-15T22:31:15;101174.16;;;-12.31;31.44
42887;BME280;29032;56.028;92.904;2024-01-15T22:36:19;101174.84;;;-12.15;31.02
42887;BME280;29032;56.028;92.904;2024-01-15T22:41:21;101180.88;;;-12.22;31.23
42887;BME280;29032;56.028;92.904;2024-01-15T22:46:23;101183.66;;;-12.18;32.15
42887;BME280;29032;56.028;92.904;2024-01-15T22:51:27;101191.94;;;-12.07;31.20
42887;BME280;29032;56.028;92.904;2024-01-15T22:56:29;101192.88;;;-12.19;31.46
42887;BME280;29032;56.028;92.904;2024-01-15T23:01:31;101197.31;;;-12.07;31.42
42887;BME280;29032;56.028;92.904;2024-01-15T23:06:34;101200.97;;;-12.19;31.23
42887;BME280;29032;56.028;92.904;2024-01-15T23:11:37;101204.19;;;-12.33;31.80
42887;BME280;29032;56.028;92.904;2024-01-15T23:16:39;101195.81;;;-12.47;31.67
42887;BME280;29032;56.028;92.904;2024-01-15T23:21:42;101211.50;;;-12.53;32.78
42887;BME280;29032;56.028;92.904;2024-01-15T23:26:44;101201.69;;;-12.42;32.85
42887;BME280;29032;56.028;92.904;2024-01-15T23:31:47;101212.03;;;-12.44;32.28
42887;BME280;29032;56.028;92.904;2024-01-15T23:36:50;101222.69;;;-12.51;32.38
42887;BME280;29032;56.028;92.904;2024-01-15T23:41:52;101224.81;;;-12.60;33.49
42887;BME280;29032;56.028;92.904;2024-01-15T23:46:54;101241.03;;;-12.41;32.59
42887;BME280;29032;56.028;92.904;2024-01-15T23:51:58;101242.41;;;-12.27;32.84
42887;BME280;29032;56.028;92.904;2024-01-15T23:57:00;101249.13;;;-12.41;32.90
